sensor_id;sensor_type;location;lat;lon;timestamp;P1;durP1;ratioP1;P2;durP2;ratioP2
12359;SDS011;6244;51.460;7.090;2022-09-09T00:02:14;1127.60;;;723.25;;
12359;SDS011;6244;51.460;7.090;2022-09-09T00:07:18;1127.97;;;717.37;;
12359;SDS011;6244;51.460;7.090;2022-09-09T00:12:22;1122.83;;;702.13;;
12359;SDS011;6244;51.460;7.090;2022-09-09T00:17:26;1123.40;;;718.75;;
12359;SDS011;6244;51.460;7.090;2022-09-09T00:22:32;1121.78;;;708.92;;
12359;SDS011;6244;51.460;7.090;2022-09-09T00:27:30;1122.33;;;716.97;;
12359;SDS011;6244;51.460;7.090;2022-09-09T00:32:32;1123.20;;;717.57;;
12359;SDS011;6244;51.460;7.090;2022-09-09T00:37:30;1123.78;;;722.92;;
12359;SDS011;6244;51.460;7.090;2022-09-09T00:42:32;1125.07;;;716.90;;
12359;SDS011;6244;51.460;7.090;2022-09-09T00:47:40;1126.43;;;705.28;;
12359;SDS011;6244;51.460;7.090;2022-09-09T00:52:43;1128.45;;;720.72;;
12359;SDS011;6244;51.460;7.090;2022-09-09T00:57:45;1129.75;;;730.28;;
12359;SDS011;6244;51.460;7.090;2022-09-09T01:02:58;1124.82;;;716.83;;
12359;SDS011;6244;51.460;7.090;2022-09-09T01:08:09;1125.30;;;724.97;;
12359;SDS011;6244;51.460;7.090;2022-09-09T01:13:19;1126.00;;;727.65;;
12359;SDS011;6244;51.460;7.090;2022-09-09T01:18:20;1122.80;;;722.53;;
12359;SDS011;6244;51.460;7.090;2022-09-09T01:23:28;1122.00;;;733.47;;
12359;SDS011;6244;51.460;7.090;2022-09-09T01:28:40;1122.47;;;722.40;;
12359;SDS011;6244;51.460;7.090;2022-09-09T01:33:39;1119.53;;;712.70;;
12359;SDS011;6244;51.460;7.090;2022-09-09T01:38:35;1123.50;;;727.00;;
12359;SDS011;6244;51.460;7.090;2022-09-09T01:43:32;1117.10;;;708.70;;
12359;SDS011;6244;51.460;7.090;2022-09-09T01:48:31;1121.30;;;731.17;;
12359;SDS011;6244;51.460;7.090;2022-09-09T01:53:28;1115.72;;;711.38;;
12359;SDS011;6244;51.460;7.090;2022-09-09T01:58:28;1117.00;;;702.10;;
12359;SDS011;6244;51.460;7.090;2022-09-09T02:03:32;1116.60;;;702.28;;
12359;SDS011;6244;51.460;7.090;2022-09-09T02:08:32;1118.47;;;703.45;;
12359;SDS011;6244;51.460;7.090;2022-09-09T02:13:37;1116.00;;;697.00;;
12359;SDS011;6244;51.460;7.090;2022-09-09T02:18:37;1117.32;;;696.05;;
12359;SDS011;6244;51.460;7.090;2022-09-09T02:23:36;1120.75;;;714.25;;
12359;SDS011;6244;51.460;7.090;2022-09-09T02:28:35;1119.03;;;703.90;;
12359;SDS011;6244;51.460;7.090;2022-09-09T02:33:37;1111.88;;;686.53;;
12359;SDS011;6244;51.460;7.090;2022-09-09T02:38:40;1114.07;;;699.63;;
12359;SDS011;6244;51.460;7.090;2022-09-09T02:43:45;1117.43;;;713.80;;
12359;SDS011;6244;51.460;7.090;2022-09-09T02:48:45;1112.35;;;742.45;;
12359;SDS011;6244;51.460;7.090;2022-09-09T02:53:49;1114.00;;;719.23;;
12359;SDS011;6244;51.460;7.090;2022-09-09T02:58:54;1118.57;;;730.17;;
12359;SDS011;6244;51.460;7.090;2022-09-09T03:03:52;1120.47;;;738.30;;
12359;SDS011;6244;51.460;7.090;2022-09-09T03:08:50;1118.95;;;729.90;;
12359;SDS011;6244;51.460;7.090;2022-09-09T03:13:47;1117.80;;;743.70;;
12359;SDS011;6244;51.460;7.090;2022-09-09T03:18:44;1112.77;;;733.93;;
12359;SDS011;6244;51.460;7.090;2022-09-09T03:23:42;1114.43;;;717.80;;
12359;SDS011;6244;51.460;7.090;2022-09-09T03:28:39;1115.60;;;713.93;;
12359;SDS011;6244;51.460;7.090;2022-09-09T03:33:36;1115.10;;;709.90;;
12359;SDS011;6244;51.460;7.090;2022-09-09T03:38:33;1115.82;;;708.95;;
12359;SDS011;6244;51.460;7.090;2022-09-09T03:43:31;1116.90;;;704.90;;
12359;SDS011;6244;51.460;7.090;2022-09-09T03:48:28;1116.30;;;699.72;;
12359;SDS011;6244;51.460;7.090;2022-09-09T03:53:24;1114.77;;;697.73;;
12359;SDS011;6244;51.460;7.090;2022-09-09T03:58:21;1111.20;;;692.97;;
12359;SDS011;6244;51.460;7.090;2022-09-09T04:03:23;1115.45;;;714.90;;
12359;SDS011;6244;51.460;7.090;2022-09-09T04:08:20;1108.65;;;695.17;;
12359;SDS011;6244;51.460;7.090;2022-09-09T04:13:18;1109.47;;;696.33;;
12359;SDS011;6244;51.460;7.090;2022-09-09T04:18:15;1111.97;;;703.20;;
12359;SDS011;6244;51.460;7.090;2022-09-09T04:23:13;1110.28;;;706.95;;
12359;SDS011;6244;51.460;7.090;2022-09-09T04:28:10;1107.90;;;690.43;;
12359;SDS011;6244;51.460;7.090;2022-09-09T04:33:07;1111.72;;;706.45;;
12359;SDS011;6244;51.460;7.090;2022-09-09T04:38:05;1108.40;;;687.38;;
12359;SDS011;6244;51.460;7.090;2022-09-09T04:43:03;1107.87;;;684.23;;
12359;SDS011;6244;51.460;7.090;2022-09-09T04:48:00;1108.80;;;687.17;;
12359;SDS011;6244;51.460;7.090;2022-09-09T04:52:59;1110.60;;;692.25;;
12359;SDS011;6244;51.460;7.090;2022-09-09T04:57:56;1106.15;;;686.60;;
12359;SDS011;6244;51.460;7.090;2022-09-09T05:02:54;1107.73;;;683.17;;
12359;SDS011;6244;51.460;7.090;2022-09-09T05:07:51;1106.50;;;683.53;;
12359;SDS011;6244;51.460;7.090;2022-09-09T05:12:51;1106.38;;;685.60;;
12359;SDS011;6244;51.460;7.090;2022-09-09T05:17:49;1108.90;;;690.13;;
12359;SDS011;6244;51.460;7.090;2022-09-09T05:22:51;1107.97;;;689.47;;
12359;SDS011;6244;51.460;7.090;2022-09-09T05:27:49;1109.60;;;698.77;;
12359;SDS011;6244;51.460;7.090;2022-09-09T05:32:45;1109.45;;;701.70;;
12359;SDS011;6244;51.460;7.090;2022-09-09T05:37:43;1108.35;;;703.03;;
12359;SDS011;6244;51.460;7.090;2022-09-09T05:42:42;1110.05;;;713.05;;
12359;SDS011;6244;51.460;7.090;2022-09-09T05:47:38;1110.93;;;717.50;;
12359;SDS011;6244;51.460;7.090;2022-09-09T05:52:35;1112.32;;;722.00;;
12359;SDS011;6244;51.460;7.090;2022-09-09T05:57:32;1109.72;;;727.40;;
12359;SDS011;6244;51.460;7.090;2022-09-09T06:02:30;1111.27;;;715.83;;
12359;SDS011;6244;51.460;7.090;2022-09-09T06:07:28;1108.18;;;701.05;;
12359;SDS011;6244;51.460;7.090;2022-09-09T06:12:25;1107.28;;;700.67;;
12359;SDS011;6244;51.460;7.090;2022-09-09T06:17:21;1105.57;;;695.78;;
12359;SDS011;6244;51.460;7.090;2022-09-09T06:22:20;1112.13;;;713.30;;
12359;SDS011;6244;51.460;7.090;2022-09-09T06:27:16;1103.27;;;719.70;;
12359;SDS011;6244;51.460;7.090;2022-09-09T06:32:12;1106.82;;;717.58;;
12359;SDS011;6244;51.460;7.090;2022-09-09T06:37:09;1113.43;;;725.25;;
12359;SDS011;6244;51.460;7.090;2022-09-09T06:42:07;1109.60;;;720.20;;
12359;SDS011;6244;51.460;7.090;2022-09-09T06:47:04;1112.97;;;729.63;;
12359;SDS011;6244;51.460;7.090;2022-09-09T06:52:01;1105.43;;;707.07;;
12359;SDS011;6244;51.460;7.090;2022-09-09T06:56:58;1106.68;;;702.50;;
12359;SDS011;6244;51.460;7.090;2022-09-09T07:01:56;1107.15;;;715.95;;
12359;SDS011;6244;51.460;7.090;2022-09-09T07:06:53;1100.68;;;687.00;;
12359;SDS011;6244;51.460;7.090;2022-09-09T07:11:50;1106.18;;;703.75;;
12359;SDS011;6244;51.460;7.090;2022-09-09T07:16:47;1115.55;;;741.40;;
12359;SDS011;6244;51.460;7.090;2022-09-09T07:21:45;1112.93;;;738.33;;
12359;SDS011;6244;51.460;7.090;2022-09-09T07:26:42;1109.33;;;699.20;;
12359;SDS011;6244;51.460;7.090;2022-09-09T07:31:40;1108.60;;;702.03;;
12359;SDS011;6244;51.460;7.090;2022-09-09T07:36:39;1108.65;;;707.92;;
12359;SDS011;6244;51.460;7.090;2022-09-09T07:41:39;1106.65;;;688.55;;
12359;SDS011;6244;51.460;7.090;2022-09-09T07:46:37;1108.85;;;699.30;;
12359;SDS011;6244;51.460;7.090;2022-09-09T07:51:35;1112.80;;;696.95;;
12359;SDS011;6244;51.460;7.090;2022-09-09T07:56:33;1112.15;;;722.15;;
12359;SDS011;6244;51.460;7.090;2022-09-09T08:01:32;1114.80;;;717.80;;
12359;SDS011;6244;51.460;7.090;2022-09-09T08:06:33;1111.25;;;743.25;;
12359;SDS011;6244;51.460;7.090;2022-09-09T08:11:32;1113.68;;;743.65;;
12359;SDS011;6244;51.460;7.090;2022-09-09T08:16:29;1109.00;;;723.25;;
12359;SDS011;6244;51.460;7.090;2022-09-09T08:21:29;1112.50;;;739.70;;
12359;SDS011;6244;51.460;7.090;2022-09-09T08:26:28;1108.00;;;739.95;;
12359;SDS011;6244;51.460;7.090;2022-09-09T08:31:26;1108.07;;;712.67;;
12359;SDS011;6244;51.460;7.090;2022-09-09T08:36:26;1107.97;;;727.50;;
12359;SDS011;6244;51.460;7.090;2022-09-09T08:41:32;1106.63;;;742.70;;
12359;SDS011;6244;51.460;7.090;2022-09-09T08:46:38;1114.30;;;718.45;;
12359;SDS011;6244;51.460;7.090;2022-09-09T08:51:44;1111.32;;;692.25;;
12359;SDS011;6244;51.460;7.090;2022-09-09T08:56:41;1109.63;;;690.92;;
12359;SDS011;6244;51.460;7.090;2022-09-09T09:01:41;1111.33;;;699.57;;
12359;SDS011;6244;51.460;7.090;2022-09-09T09:06:49;1107.53;;;692.30;;
12359;SDS011;6244;51.460;7.090;2022-09-09T09:11:56;1106.20;;;720.33;;
12359;SDS011;6244;51.460;7.090;2022-09-09T09:16:56;1101.45;;;690.47;;
12359;SDS011;6244;51.460;7.090;2022-09-09T09:21:57;1105.67;;;714.57;;
12359;SDS011;6244;51.460;7.090;2022-09-09T09:26:59;1101.68;;;714.60;;
12359;SDS011;6244;51.460;7.090;2022-09-09T09:32:03;1104.97;;;723.33;;
12359;SDS011;6244;51.460;7.090;2022-09-09T09:37:01;1105.13;;;738.03;;
12359;SDS011;6244;51.460;7.090;2022-09-09T09:42:08;1100.20;;;721.00;;
12359;SDS011;6244;51.460;7.090;2022-09-09T09:47:10;1099.43;;;716.55;;
12359;SDS011;6244;51.460;7.090;2022-09-09T09:52:13;1100.07;;;698.70;;
12359;SDS011;6244;51.460;7.090;2022-09-09T09:57:17;1113.82;;;745.80;;
12359;SDS011;6244;51.460;7.090;2022-09-09T10:02:15;1103.88;;;724.97;;
12359;SDS011;6244;51.460;7.090;2022-09-09T10:07:18;1110.87;;;714.80;;
12359;SDS011;6244;51.460;7.090;2022-09-09T10:12:19;1106.80;;;735.55;;
12359;SDS011;6244;51.460;7.090;2022-09-09T10:17:27;1104.80;;;727.53;;
12359;SDS011;6244;51.460;7.090;2022-09-09T10:22:33;1104.38;;;728.40;;
12359;SDS011;6244;51.460;7.090;2022-09-09T10:27:32;1115.03;;;737.30;;
12359;SDS011;6244;51.460;7.090;2022-09-09T10:32:40;1108.28;;;771.08;;
12359;SDS011;6244;51.460;7.090;2022-09-09T10:37:44;1109.93;;;751.80;;
12359;SDS011;6244;51.460;7.090;2022-09-09T10:42:50;1105.30;;;753.25;;
12359;SDS011;6244;51.460;7.090;2022-09-09T10:47:55;1102.57;;;742.33;;
12359;SDS011;6244;51.460;7.090;2022-09-09T10:53:05;1103.53;;;736.92;;
12359;SDS011;6244;51.460;7.090;2022-09-09T10:58:10;1099.33;;;717.57;;
12359;SDS011;6244;51.460;7.090;2022-09-09T11:03:17;1102.35;;;715.20;;
12359;SDS011;6244;51.460;7.090;2022-09-09T11:08:19;1099.03;;;699.13;;
12359;SDS011;6244;51.460;7.090;2022-09-09T11:13:19;1101.30;;;715.23;;
12359;SDS011;6244;51.460;7.090;2022-09-09T11:18:21;1107.18;;;716.38;;
12359;SDS011;6244;51.460;7.090;2022-09-09T11:23:20;1100.07;;;714.08;;
12359;SDS011;6244;51.460;7.090;2022-09-09T11:28:35;1109.28;;;726.28;;
12359;SDS011;6244;51.460;7.090;2022-09-09T11:33:47;1106.00;;;739.88;;
12359;SDS011;6244;51.460;7.090;2022-09-09T11:38:56;1099.10;;;734.53;;
12359;SDS011;6244;51.460;7.090;2022-09-09T11:44:09;1097.95;;;715.42;;
12359;SDS011;6244;51.460;7.090;2022-09-09T11:49:21;1103.10;;;730.20;;
12359;SDS011;6244;51.460;7.090;2022-09-09T11:54:31;1098.10;;;739.75;;
12359;SDS011;6244;51.460;7.090;2022-09-09T11:59:50;1096.78;;;729.92;;
12359;SDS011;6244;51.460;7.090;2022-09-09T12:04:48;1112.85;;;714.80;;
12359;SDS011;6244;51.460;7.090;2022-09-09T12:09:53;1113.10;;;745.08;;
12359;SDS011;6244;51.460;7.090;2022-09-09T12:20:30;1105.13;;;685.90;;
12359;SDS011;6244;51.460;7.090;2022-09-09T12:25:32;1112.68;;;725.25;;
12359;SDS011;6244;51.460;7.090;2022-09-09T12:30:41;1108.10;;;726.65;;
12359;SDS011;6244;51.460;7.090;2022-09-09T12:35:47;1112.85;;;744.13;;
12359;SDS011;6244;51.460;7.090;2022-09-09T12:40:55;1114.20;;;710.58;;
12359;SDS011;6244;51.460;7.090;2022-09-09T12:45:53;1104.60;;;719.17;;
12359;SDS011;6244;51.460;7.090;2022-09-09T12:50:55;1104.13;;;711.35;;
12359;SDS011;6244;51.460;7.090;2022-09-09T12:55:53;1100.93;;;695.13;;
12359;SDS011;6244;51.460;7.090;2022-09-09T13:00:53;1103.60;;;717.92;;
12359;SDS011;6244;51.460;7.090;2022-09-09T13:05:51;1125.80;;;730.17;;
12359;SDS011;6244;51.460;7.090;2022-09-09T13:10:49;1100.85;;;674.35;;
12359;SDS011;6244;51.460;7.090;2022-09-09T13:15:52;1097.43;;;689.45;;
12359;SDS011;6244;51.460;7.090;2022-09-09T13:20:51;1099.50;;;684.95;;
12359;SDS011;6244;51.460;7.090;2022-09-09T13:25:54;1106.47;;;710.95;;
12359;SDS011;6244;51.460;7.090;2022-09-09T13:30:58;1100.30;;;702.87;;
12359;SDS011;6244;51.460;7.090;2022-09-09T13:35:55;1101.32;;;694.65;;
12359;SDS011;6244;51.460;7.090;2022-09-09T13:40:57;1105.65;;;682.60;;
12359;SDS011;6244;51.460;7.090;2022-09-09T13:45:59;1103.15;;;670.70;;
12359;SDS011;6244;51.460;7.090;2022-09-09T13:50:58;1115.15;;;663.40;;
12359;SDS011;6244;51.460;7.090;2022-09-09T13:56:00;1112.43;;;631.57;;
12359;SDS011;6244;51.460;7.090;2022-09-09T14:00:58;1113.13;;;618.17;;
12359;SDS011;6244;51.460;7.090;2022-09-09T14:05:55;1115.85;;;634.00;;
12359;SDS011;6244;51.460;7.090;2022-09-09T14:10:52;1109.90;;;617.28;;
12359;SDS011;6244;51.460;7.090;2022-09-09T14:15:50;1111.88;;;635.05;;
12359;SDS011;6244;51.460;7.090;2022-09-09T14:20:49;1103.77;;;623.47;;
12359;SDS011;6244;51.460;7.090;2022-09-09T14:25:46;1106.43;;;640.08;;
12359;SDS011;6244;51.460;7.090;2022-09-09T14:30:43;1107.72;;;657.67;;
12359;SDS011;6244;51.460;7.090;2022-09-09T14:35:40;1103.68;;;620.13;;
12359;SDS011;6244;51.460;7.090;2022-09-09T14:40:38;1107.25;;;645.63;;
12359;SDS011;6244;51.460;7.090;2022-09-09T14:45:35;1107.68;;;675.15;;
12359;SDS011;6244;51.460;7.090;2022-09-09T14:50:32;1101.35;;;681.95;;
12359;SDS011;6244;51.460;7.090;2022-09-09T14:55:29;1099.82;;;663.05;;
12359;SDS011;6244;51.460;7.090;2022-09-09T15:00:27;1101.65;;;680.58;;
12359;SDS011;6244;51.460;7.090;2022-09-09T15:05:24;1104.82;;;688.85;;
12359;SDS011;6244;51.460;7.090;2022-09-09T15:10:20;1098.55;;;672.53;;
12359;SDS011;6244;51.460;7.090;2022-09-09T15:15:17;1113.63;;;631.80;;
12359;SDS011;6244;51.460;7.090;2022-09-09T15:20:15;1116.27;;;661.23;;
12359;SDS011;6244;51.460;7.090;2022-09-09T15:25:12;1112.43;;;662.50;;
12359;SDS011;6244;51.460;7.090;2022-09-09T15:30:09;1112.57;;;665.80;;
12359;SDS011;6244;51.460;7.090;2022-09-09T15:35:06;1112.13;;;655.03;;
12359;SDS011;6244;51.460;7.090;2022-09-09T15:40:05;1111.72;;;666.55;;
12359;SDS011;6244;51.460;7.090;2022-09-09T15:45:02;1111.73;;;672.40;;
12359;SDS011;6244;51.460;7.090;2022-09-09T15:50:00;1113.37;;;681.53;;
12359;SDS011;6244;51.460;7.090;2022-09-09T15:54:56;1108.47;;;633.92;;
12359;SDS011;6244;51.460;7.090;2022-09-09T15:59:54;1105.10;;;625.10;;
12359;SDS011;6244;51.460;7.090;2022-09-09T16:04:51;1110.50;;;648.23;;
12359;SDS011;6244;51.460;7.090;2022-09-09T16:09:47;1107.65;;;630.38;;
12359;SDS011;6244;51.460;7.090;2022-09-09T16:14:46;1108.75;;;642.67;;
12359;SDS011;6244;51.460;7.090;2022-09-09T16:19:44;1107.00;;;632.47;;
12359;SDS011;6244;51.460;7.090;2022-09-09T16:24:40;1108.50;;;654.87;;
12359;SDS011;6244;51.460;7.090;2022-09-09T16:29:37;1105.25;;;648.03;;
12359;SDS011;6244;51.460;7.090;2022-09-09T16:34:34;1105.53;;;644.37;;
12359;SDS011;6244;51.460;7.090;2022-09-09T16:39:32;1095.72;;;567.92;;
12359;SDS011;6244;51.460;7.090;2022-09-09T16:44:28;1102.28;;;608.38;;
12359;SDS011;6244;51.460;7.090;2022-09-09T16:49:25;1110.70;;;629.53;;
12359;SDS011;6244;51.460;7.090;2022-09-09T16:54:22;1105.35;;;642.45;;
12359;SDS011;6244;51.460;7.090;2022-09-09T16:59:23;1105.07;;;639.40;;
12359;SDS011;6244;51.460;7.090;2022-09-09T17:04:20;1101.90;;;638.47;;
12359;SDS011;6244;51.460;7.090;2022-09-09T17:09:19;1104.53;;;635.25;;
12359;SDS011;6244;51.460;7.090;2022-09-09T17:14:17;1105.28;;;646.00;;
12359;SDS011;6244;51.460;7.090;2022-09-09T17:19:17;1106.90;;;660.60;;
12359;SDS011;6244;51.460;7.090;2022-09-09T17:24:13;1104.83;;;672.30;;
12359;SDS011;6244;51.460;7.090;2022-09-09T17:29:10;1104.10;;;664.05;;
12359;SDS011;6244;51.460;7.090;2022-09-09T17:34:09;1104.18;;;657.28;;
12359;SDS011;6244;51.460;7.090;2022-09-09T17:39:07;1104.70;;;627.78;;
12359;SDS011;6244;51.460;7.090;2022-09-09T17:44:04;1106.73;;;635.53;;
12359;SDS011;6244;51.460;7.090;2022-09-09T17:49:02;1106.05;;;638.40;;
12359;SDS011;6244;51.460;7.090;2022-09-09T17:54:02;1104.27;;;634.17;;
12359;SDS011;6244;51.460;7.090;2022-09-09T17:59:03;1103.73;;;633.23;;
12359;SDS011;6244;51.460;7.090;2022-09-09T18:04:01;1103.77;;;630.27;;
12359;SDS011;6244;51.460;7.090;2022-09-09T18:09:01;1104.60;;;644.03;;
12359;SDS011;6244;51.460;7.090;2022-09-09T18:14:00;1099.72;;;635.90;;
12359;SDS011;6244;51.460;7.090;2022-09-09T18:18:58;1099.88;;;634.88;;
12359;SDS011;6244;51.460;7.090;2022-09-09T18:23:58;1101.60;;;647.55;;
12359;SDS011;6244;51.460;7.090;2022-09-09T18:28:56;1104.43;;;644.00;;
12359;SDS011;6244;51.460;7.090;2022-09-09T18:33:57;1102.33;;;645.97;;
12359;SDS011;6244;51.460;7.090;2022-09-09T18:38:56;1102.17;;;653.87;;
12359;SDS011;6244;51.460;7.090;2022-09-09T18:43:56;1103.10;;;653.03;;
12359;SDS011;6244;51.460;7.090;2022-09-09T18:48:53;1100.25;;;638.85;;
12359;SDS011;6244;51.460;7.090;2022-09-09T18:53:53;1099.60;;;641.13;;
12359;SDS011;6244;51.460;7.090;2022-09-09T18:58:51;1099.88;;;633.85;;
12359;SDS011;6244;51.460;7.090;2022-09-09T19:03:50;1103.70;;;639.53;;
12359;SDS011;6244;51.460;7.090;2022-09-09T19:08:47;1101.22;;;627.03;;
12359;SDS011;6244;51.460;7.090;2022-09-09T19:13:47;1102.80;;;645.92;;
12359;SDS011;6244;51.460;7.090;2022-09-09T19:18:46;1099.32;;;638.40;;
12359;SDS011;6244;51.460;7.090;2022-09-09T19:23:43;1100.63;;;649.22;;
12359;SDS011;6244;51.460;7.090;2022-09-09T19:28:40;1096.90;;;626.27;;
12359;SDS011;6244;51.460;7.090;2022-09-09T19:33:41;1100.80;;;651.15;;
12359;SDS011;6244;51.460;7.090;2022-09-09T19:38:39;1097.40;;;633.37;;
12359;SDS011;6244;51.460;7.090;2022-09-09T19:43:36;1101.47;;;645.60;;
12359;SDS011;6244;51.460;7.090;2022-09-09T19:48:33;1104.18;;;642.85;;
12359;SDS011;6244;51.460;7.090;2022-09-09T19:53:34;1103.72;;;626.72;;
12359;SDS011;6244;51.460;7.090;2022-09-09T19:58:32;1104.30;;;612.97;;
12359;SDS011;6244;51.460;7.090;2022-09-09T20:03:29;1104.78;;;611.72;;
12359;SDS011;6244;51.460;7.090;2022-09-09T20:08:27;1103.20;;;617.40;;
12359;SDS011;6244;51.460;7.090;2022-09-09T20:13:25;1103.03;;;617.15;;
12359;SDS011;6244;51.460;7.090;2022-09-09T20:18:21;1102.50;;;626.00;;
12359;SDS011;6244;51.460;7.090;2022-09-09T20:23:18;1103.63;;;647.25;;
12359;SDS011;6244;51.460;7.090;2022-09-09T20:28:15;1104.10;;;664.20;;
12359;SDS011;6244;51.460;7.090;2022-09-09T20:33:13;1100.83;;;663.83;;
12359;SDS011;6244;51.460;7.090;2022-09-09T20:38:10;1101.60;;;659.07;;
12359;SDS011;6244;51.460;7.090;2022-09-09T20:43:09;1104.28;;;688.20;;
12359;SDS011;6244;51.460;7.090;2022-09-09T20:48:07;1100.77;;;667.23;;
12359;SDS011;6244;51.460;7.090;2022-09-09T20:53:06;1105.38;;;685.67;;
12359;SDS011;6244;51.460;7.090;2022-09-09T20:58:03;1106.57;;;666.03;;
12359;SDS011;6244;51.460;7.090;2022-09-09T21:02:59;1103.55;;;639.72;;
12359;SDS011;6244;51.460;7.090;2022-09-09T21:07:56;1104.90;;;652.78;;
12359;SDS011;6244;51.460;7.090;2022-09-09T21:12:54;1106.18;;;639.65;;
12359;SDS011;6244;51.460;7.090;2022-09-09T21:17:52;1108.60;;;666.97;;
12359;SDS011;6244;51.460;7.090;2022-09-09T21:22:49;1108.35;;;660.83;;
12359;SDS011;6244;51.460;7.090;2022-09-09T21:27:45;1104.35;;;647.47;;
12359;SDS011;6244;51.460;7.090;2022-09-09T21:32:43;1102.07;;;646.95;;
12359;SDS011;6244;51.460;7.090;2022-09-09T21:37:40;1105.88;;;652.47;;
12359;SDS011;6244;51.460;7.090;2022-09-09T21:42:36;1111.05;;;667.75;;
12359;SDS011;6244;51.460;7.090;2022-09-09T21:47:33;1105.47;;;647.30;;
12359;SDS011;6244;51.460;7.090;2022-09-09T21:52:31;1102.37;;;636.20;;
12359;SDS011;6244;51.460;7.090;2022-09-09T21:57:27;1102.30;;;636.80;;
12359;SDS011;6244;51.460;7.090;2022-09-09T22:02:24;1101.77;;;624.47;;
12359;SDS011;6244;51.460;7.090;2022-09-09T22:07:22;1103.65;;;627.78;;
12359;SDS011;6244;51.460;7.090;2022-09-09T22:12:20;1102.53;;;625.38;;
12359;SDS011;6244;51.460;7.090;2022-09-09T22:17:16;1104.77;;;623.10;;
12359;SDS011;6244;51.460;7.090;2022-09-09T22:22:13;1103.60;;;626.63;;
12359;SDS011;6244;51.460;7.090;2022-09-09T22:27:09;1099.30;;;618.40;;
12359;SDS011;6244;51.460;7.090;2022-09-09T22:32:07;1100.88;;;630.17;;
12359;SDS011;6244;51.460;7.090;2022-09-09T22:37:04;1108.65;;;664.72;;
12359;SDS011;6244;51.460;7.090;2022-09-09T22:42:01;1102.68;;;641.25;;
12359;SDS011;6244;51.460;7.090;2022-09-09T22:47:00;1103.72;;;647.38;;
12359;SDS011;6244;51.460;7.090;2022-09-09T22:51:58;1101.60;;;630.88;;
12359;SDS011;6244;51.460;7.090;2022-09-09T22:56:55;1100.13;;;630.80;;
12359;SDS011;6244;51.460;7.090;2022-09-09T23:01:51;1099.40;;;626.33;;
12359;SDS011;6244;51.460;7.090;2022-09-09T23:06:48;1096.72;;;623.78;;
12359;SDS011;6244;51.460;7.090;2022-09-09T23:11:46;1095.78;;;622.42;;
12359;SDS011;6244;51.460;7.090;2022-09-09T23:16:43;1098.53;;;630.40;;
12359;SDS011;6244;51.460;7.090;2022-09-09T23:21:41;1092.93;;;605.37;;
12359;SDS011;6244;51.460;7.090;2022-09-09T23:26:39;1094.97;;;592.83;;
12359;SDS011;6244;51.460;7.090;2022-09-09T23:31:39;1097.77;;;610.53;;
12359;SDS011;6244;51.460;7.090;2022-09-09T23:36:37;1101.20;;;632.08;;
12359;SDS011;6244;51.460;7.090;2022-09-09T23:41:35;1097.32;;;620.92;;
12359;SDS011;6244;51.460;7.090;2022-09-09T23:46:34;1102.28;;;625.53;;
12359;SDS011;6244;51.460;7.090;2022-09-09T23:51:32;1097.47;;;607.92;;
12359;SDS011;6244;51.460;7.090;2022-09-09T23:56:29;1094.90;;;614.88;;
